Terminal Aerodrome Forecast
Issued by NWS Charleston, WV

Current Version | Previous Version | Graphics & Text | Print | Product List | Glossary On
Versions: 1 2 3 4 5 6 7 8 9 10 11 12 13 14 15 16 17 18 19 20 21 22 23 24 25 26
860
FTUS41 KRLX 151005 AAA
TAFEKN
TAF AMD
KEKN 151005Z 1510/1606 00000KT P6SM SCT150
     FM151200 00000KT P6SM OVC110
     FM152000 20006KT P6SM BKN050=

USA.gov is the U.S. government's official web portal to all federal, state and local government web resources and services.